Time;durP1;ratioP1;P1;durP2;ratioP2;P2;SDS_P1;SDS_P2;PMS_P1;PMS_P2;Temp;Humidity;BMP_temperature;BMP_pressure;BME280_temperature;BME280_humidity;BME280_pressure;Samples;Min_cycle;Max_cycle;Signal;HPM_P1;HPM_P2
2023/06/19 00:01:39;;;;;;;12.45;11.85;;;;;;;;;;4992058;28;20406;-68
2023/06/19 00:04:05;;;;;;;12.13;11.52;;;;;;;;;;4983484;28;20050;-67
2023/06/19 00:06:30;;;;;;;12.85;12.25;;;;;;;;;;4985109;28;20503;-67
2023/06/19 00:08:55;;;;;;;12.60;12.00;;;;;;;;;;4985860;28;20041;-67
2023/06/19 00:11:20;;;;;;;12.95;12.30;;;;;;;;;;4991090;28;20022;-67
2023/06/19 00:13:46;;;;;;;12.57;11.98;;;;;;;;;;4991760;28;20034;-67
2023/06/19 00:16:11;;;;;;;13.35;12.65;;;;;;;;;;4988900;28;20050;-67
2023/06/19 00:18:39;;;;;;;12.40;11.80;;;;;;;;;;4987264;28;20061;-67
2023/06/19 00:21:08;;;;;;;12.30;11.70;;;;;;;;;;4991803;28;20033;-67
2023/06/19 00:23:34;;;;;;;12.40;11.80;;;;;;;;;;4990472;28;20018;-67
2023/06/19 00:26:01;;;;;;;11.90;11.40;;;;;;;;;;4983357;28;20117;-67
2023/06/19 00:28:30;;;;;;;12.32;11.73;;;;;;;;;;4993516;28;20046;-67
2023/06/19 00:30:55;;;;;;;13.52;12.82;;;;;;;;;;4990282;28;20454;-67
2023/06/19 00:33:21;;;;;;;12.48;11.88;;;;;;;;;;4991916;28;20022;-67
2023/06/19 00:35:46;;;;;;;13.48;12.77;;;;;;;;;;4988457;28;20018;-67
2023/06/19 00:38:12;;;;;;;12.55;11.95;;;;;;;;;;4993492;28;20034;-67
2023/06/19 00:40:37;;;;;;;12.65;12.05;;;;;;;;;;4988711;28;20038;-66
2023/06/19 00:43:02;;;;;;;12.10;11.50;;;;;;;;;;4991218;28;20406;-67
2023/06/19 00:45:28;;;;;;;12.30;11.70;;;;;;;;;;4990511;28;20528;-68
2023/06/19 00:47:54;;;;;;;13.13;12.43;;;;;;;;;;4989063;28;20119;-67
2023/06/19 00:50:20;;;;;;;12.32;11.73;;;;;;;;;;4988083;28;20046;-67
2023/06/19 00:52:45;;;;;;;13.25;12.55;;;;;;;;;;4985492;28;20026;-68
2023/06/19 00:55:11;;;;;;;12.75;12.15;;;;;;;;;;4991993;28;20033;-67
2023/06/19 00:57:36;;;;;;;12.68;12.07;;;;;;;;;;4995149;28;20026;-66
2023/06/19 01:00:05;;;;;;;12.60;12.00;;;;;;;;;;4986298;28;20030;-67
2023/06/19 01:02:30;;;;;;;12.93;12.32;;;;;;;;;;4997162;28;20061;-67
2023/06/19 01:04:56;;;;;;;13.43;12.73;;;;;;;;;;4989670;28;20394;-67
2023/06/19 01:07:42;;;;;;;12.70;12.10;;;;;;;;;;4987439;28;20390;-67
2023/06/19 01:10:10;;;;;;;12.70;12.10;;;;;;;;;;4964067;28;20045;-67
2023/06/19 01:12:37;;;;;;;12.32;11.73;;;;;;;;;;4989443;28;20682;-68
2023/06/19 01:15:03;;;;;;;13.27;12.57;;;;;;;;;;4990902;28;20034;-67
2023/06/19 01:17:29;;;;;;;12.88;12.27;;;;;;;;;;4989122;28;20746;-68
2023/06/19 01:19:57;;;;;;;13.07;12.45;;;;;;;;;;4989561;28;20018;-68
2023/06/19 01:22:32;;;;;;;12.40;11.80;;;;;;;;;;4982404;28;20932;-68
2023/06/19 01:24:57;;;;;;;12.52;11.93;;;;;;;;;;4978806;28;20035;-68
2023/06/19 01:27:25;;;;;;;12.80;12.20;;;;;;;;;;4979701;28;20046;-68
2023/06/19 01:29:50;;;;;;;13.05;12.38;;;;;;;;;;4991694;28;20478;-67
2023/06/19 01:32:20;;;;;;;12.70;12.10;;;;;;;;;;4982295;28;20027;-68
2023/06/19 01:34:46;;;;;;;12.73;12.13;;;;;;;;;;4981852;28;20550;-67
2023/06/19 01:37:12;;;;;;;12.82;12.23;;;;;;;;;;4984148;28;20169;-67
2023/06/19 01:39:37;;;;;;;12.27;11.68;;;;;;;;;;4991069;28;20482;-67
2023/06/19 01:42:04;;;;;;;12.10;11.50;;;;;;;;;;4988516;28;20057;-67
2023/06/19 01:44:29;;;;;;;11.98;11.40;;;;;;;;;;4989329;28;20490;-67
2023/06/19 01:46:55;;;;;;;13.27;12.57;;;;;;;;;;4987735;28;20156;-67
2023/06/19 01:49:20;;;;;;;12.05;11.45;;;;;;;;;;4987650;28;20161;-67
2023/06/19 01:51:45;;;;;;;13.43;12.73;;;;;;;;;;4986067;28;20043;-68
2023/06/19 01:54:10;;;;;;;12.10;11.50;;;;;;;;;;4991332;28;20109;-67
2023/06/19 01:56:36;;;;;;;12.65;12.05;;;;;;;;;;4988215;28;20359;-67
2023/06/19 01:59:01;;;;;;;11.68;11.18;;;;;;;;;;4993870;28;20023;-68
2023/06/19 02:01:27;;;;;;;12.40;11.80;;;;;;;;;;4981851;28;20011;-68
2023/06/19 02:03:52;;;;;;;12.50;11.90;;;;;;;;;;4984568;28;20122;-68
2023/06/19 02:06:17;;;;;;;12.00;11.40;;;;;;;;;;4981487;28;20504;-68
2023/06/19 02:08:43;;;;;;;12.38;11.77;;;;;;;;;;4991139;28;20046;-66
2023/06/19 02:11:08;;;;;;;11.80;11.30;;;;;;;;;;4988397;28;20026;-67
2023/06/19 02:13:33;;;;;;;12.10;11.50;;;;;;;;;;4991330;28;20045;-66
2023/06/19 02:15:59;;;;;;;13.30;12.60;;;;;;;;;;4988647;28;20026;-68
2023/06/19 02:18:24;;;;;;;12.82;12.20;;;;;;;;;;4977815;28;20034;-68
2023/06/19 02:20:49;;;;;;;12.63;12.02;;;;;;;;;;4988901;28;20097;-67
2023/06/19 02:23:15;;;;;;;11.85;11.32;;;;;;;;;;4990326;28;20030;-67
2023/06/19 02:25:40;;;;;;;13.77;13.05;;;;;;;;;;4983062;28;20044;-67
2023/06/19 02:28:05;;;;;;;12.35;11.75;;;;;;;;;;4987314;28;20071;-67
2023/06/19 02:30:31;;;;;;;12.02;11.43;;;;;;;;;;4990444;28;20033;-67
2023/06/19 02:32:56;;;;;;;12.55;11.95;;;;;;;;;;4986128;28;20486;-67
2023/06/19 02:35:21;;;;;;;13.40;12.70;;;;;;;;;;4988048;28;20026;-67
2023/06/19 02:37:47;;;;;;;12.00;11.40;;;;;;;;;;4985699;28;20039;-67
2023/06/19 02:40:12;;;;;;;12.52;11.93;;;;;;;;;;4995460;28;20026;-66
2023/06/19 02:42:38;;;;;;;12.45;11.85;;;;;;;;;;4991744;28;20109;-67
2023/06/19 02:45:03;;;;;;;13.30;12.60;;;;;;;;;;4989762;28;20467;-66
2023/06/19 02:47:30;;;;;;;12.60;12.00;;;;;;;;;;4990723;28;20054;-67
2023/06/19 02:49:56;;;;;;;12.73;12.13;;;;;;;;;;4986895;28;20154;-66
2023/06/19 02:52:21;;;;;;;12.77;12.18;;;;;;;;;;4994298;28;20014;-66
2023/06/19 02:54:46;;;;;;;13.07;12.38;;;;;;;;;;4991816;28;20045;-66
2023/06/19 02:57:12;;;;;;;12.52;11.93;;;;;;;;;;4991927;28;20058;-67
2023/06/19 02:59:37;;;;;;;12.30;11.70;;;;;;;;;;4991089;28;20014;-67
2023/06/19 03:02:02;;;;;;;12.50;11.90;;;;;;;;;;4995590;28;20022;-67
2023/06/19 03:04:28;;;;;;;12.43;11.82;;;;;;;;;;4996112;28;20454;-67
2023/06/19 03:06:53;;;;;;;13.10;12.40;;;;;;;;;;4988320;28;20552;-67
2023/06/19 03:09:19;;;;;;;13.02;12.35;;;;;;;;;;4991418;28;20030;-67
2023/06/19 03:11:45;;;;;;;12.45;11.85;;;;;;;;;;4994338;28;20026;-67
2023/06/19 03:14:10;;;;;;;13.07;12.38;;;;;;;;;;4994022;28;20037;-67
2023/06/19 03:16:35;;;;;;;12.43;11.82;;;;;;;;;;4987216;28;20145;-67
2023/06/19 03:19:01;;;;;;;13.48;12.77;;;;;;;;;;4991863;28;20026;-67
2023/06/19 03:21:26;;;;;;;13.40;12.70;;;;;;;;;;4987168;28;20019;-67
2023/06/19 03:23:51;;;;;;;13.25;12.55;;;;;;;;;;4993776;28;20425;-68
2023/06/19 03:26:18;;;;;;;13.13;12.43;;;;;;;;;;4990789;28;20014;-62
2023/06/19 03:28:43;;;;;;;14.43;13.63;;;;;;;;;;4991980;28;20228;-63
2023/06/19 03:31:09;;;;;;;14.70;13.90;;;;;;;;;;4984782;28;20116;-63
2023/06/19 03:33:34;;;;;;;13.23;12.52;;;;;;;;;;4990414;28;20021;-62
2023/06/19 03:35:59;;;;;;;12.50;11.90;;;;;;;;;;4993866;28;20022;-63
2023/06/19 03:38:25;;;;;;;12.73;12.13;;;;;;;;;;4993414;28;20034;-62
2023/06/19 03:40:50;;;;;;;12.82;12.23;;;;;;;;;;4992104;28;20085;-63
2023/06/19 03:43:15;;;;;;;13.00;12.35;;;;;;;;;;4987145;28;20019;-63
2023/06/19 03:45:41;;;;;;;12.05;11.45;;;;;;;;;;4993081;28;20019;-63
2023/06/19 03:48:06;;;;;;;12.93;12.23;;;;;;;;;;4985084;28;20121;-63
2023/06/19 03:50:31;;;;;;;12.75;12.15;;;;;;;;;;4985407;28;20040;-63
2023/06/19 03:52:56;;;;;;;12.77;12.18;;;;;;;;;;4991146;28;20030;-64
2023/06/19 03:55:22;;;;;;;13.05;12.35;;;;;;;;;;4991362;28;20080;-63
2023/06/19 03:57:47;;;;;;;12.45;11.85;;;;;;;;;;4994346;28;20049;-63
2023/06/19 04:00:13;;;;;;;12.35;11.75;;;;;;;;;;4986986;28;20022;-64
2023/06/19 04:02:39;;;;;;;12.43;11.82;;;;;;;;;;4992067;28;20101;-64
2023/06/19 04:05:05;;;;;;;12.43;11.82;;;;;;;;;;4989771;28;20018;-63
2023/06/19 04:07:31;;;;;;;13.25;12.55;;;;;;;;;;4985213;28;20021;-63
2023/06/19 04:09:57;;;;;;;13.23;12.52;;;;;;;;;;4984165;28;20065;-63
2023/06/19 04:12:22;;;;;;;12.70;12.10;;;;;;;;;;4982689;28;20494;-63
2023/06/19 04:14:47;;;;;;;13.18;12.48;;;;;;;;;;4988577;28;20057;-63
2023/06/19 04:17:13;;;;;;;12.90;12.30;;;;;;;;;;4990568;28;20493;-64
2023/06/19 04:19:38;;;;;;;13.20;12.50;;;;;;;;;;4988610;28;20045;-64
2023/06/19 04:22:04;;;;;;;13.20;12.50;;;;;;;;;;4990495;28;20022;-64
2023/06/19 04:24:29;;;;;;;12.75;12.15;;;;;;;;;;4988581;28;20485;-64
2023/06/19 04:26:54;;;;;;;12.55;11.95;;;;;;;;;;4980287;28;20153;-64
2023/06/19 04:29:19;;;;;;;12.13;11.52;;;;;;;;;;5004104;28;20034;-64
2023/06/19 04:31:48;;;;;;;12.45;11.85;;;;;;;;;;4982468;28;20038;-64
2023/06/19 04:34:16;;;;;;;12.13;11.52;;;;;;;;;;4986148;28;20082;-63
2023/06/19 04:36:42;;;;;;;13.00;12.30;;;;;;;;;;4986912;28;20042;-64
2023/06/19 04:39:07;;;;;;;13.20;12.50;;;;;;;;;;4990398;28;20026;-63
2023/06/19 04:41:32;;;;;;;12.75;12.15;;;;;;;;;;4987886;28;20108;-64
2023/06/19 04:43:58;;;;;;;12.48;11.88;;;;;;;;;;4985899;28;20015;-63
2023/06/19 04:46:23;;;;;;;13.10;12.43;;;;;;;;;;4987217;28;20398;-66
2023/06/19 04:48:51;;;;;;;13.27;12.57;;;;;;;;;;4986110;28;20026;-65
2023/06/19 04:51:20;;;;;;;12.13;11.55;;;;;;;;;;4985292;28;20536;-64
2023/06/19 04:53:46;;;;;;;11.90;11.35;;;;;;;;;;4990442;28;20027;-63
2023/06/19 04:56:12;;;;;;;12.90;12.30;;;;;;;;;;4985698;28;20026;-64
2023/06/19 04:58:43;;;;;;;12.95;12.30;;;;;;;;;;4980788;28;20023;-63
2023/06/19 05:01:10;;;;;;;12.50;11.90;;;;;;;;;;4985623;28;20023;-64
2023/06/19 05:03:35;;;;;;;12.93;12.30;;;;;;;;;;5003295;28;20401;-63
2023/06/19 05:06:00;;;;;;;12.88;12.23;;;;;;;;;;4983334;28;20018;-63
2023/06/19 05:08:26;;;;;;;12.80;12.20;;;;;;;;;;4987952;28;20084;-63
2023/06/19 05:10:51;;;;;;;13.25;12.55;;;;;;;;;;4991971;28;20057;-63
2023/06/19 05:13:18;;;;;;;14.10;13.35;;;;;;;;;;4986272;28;20481;-64
2023/06/19 05:15:43;;;;;;;13.52;12.82;;;;;;;;;;4984666;28;20482;-64
2023/06/19 05:18:08;;;;;;;12.30;11.70;;;;;;;;;;4992705;28;20030;-64
2023/06/19 05:20:34;;;;;;;13.05;12.45;;;;;;;;;;4986892;28;20027;-65
2023/06/19 05:22:59;;;;;;;12.20;11.60;;;;;;;;;;4982099;28;20030;-64
2023/06/19 05:25:24;;;;;;;12.88;12.27;;;;;;;;;;4991204;28;20026;-63
2023/06/19 05:27:50;;;;;;;14.27;13.48;;;;;;;;;;4986400;28;20046;-63
2023/06/19 05:30:15;;;;;;;12.93;12.33;;;;;;;;;;4975010;28;20022;-64
2023/06/19 05:32:40;;;;;;;13.00;12.35;;;;;;;;;;4987048;28;20484;-64
2023/06/19 05:35:06;;;;;;;13.32;12.63;;;;;;;;;;4985710;28;20050;-64
2023/06/19 05:37:32;;;;;;;13.23;12.52;;;;;;;;;;4984549;28;20042;-63
2023/06/19 05:39:58;;;;;;;13.45;12.75;;;;;;;;;;4989879;28;20492;-65
2023/06/19 05:42:23;;;;;;;12.93;12.32;;;;;;;;;;4989827;28;20022;-64
2023/06/19 05:44:48;;;;;;;13.27;12.57;;;;;;;;;;4991280;28;20065;-64
2023/06/19 05:47:16;;;;;;;13.15;12.45;;;;;;;;;;4986299;28;20401;-63
2023/06/19 05:49:42;;;;;;;13.13;12.50;;;;;;;;;;4985404;28;20408;-65
2023/06/19 05:52:07;;;;;;;12.63;12.02;;;;;;;;;;4982786;28;20117;-64
2023/06/19 05:54:32;;;;;;;13.65;12.95;;;;;;;;;;4988434;28;20127;-65
2023/06/19 05:56:58;;;;;;;13.48;12.77;;;;;;;;;;4992666;28;20030;-65
2023/06/19 05:59:23;;;;;;;14.60;13.80;;;;;;;;;;4989554;28;20533;-64
2023/06/19 06:01:50;;;;;;;13.35;12.65;;;;;;;;;;4979933;28;20118;-65
2023/06/19 06:04:15;;;;;;;12.50;11.90;;;;;;;;;;4992629;28;20030;-65
2023/06/19 06:06:41;;;;;;;13.70;13.00;;;;;;;;;;4986121;28;20034;-63
2023/06/19 06:09:09;;;;;;;14.00;13.27;;;;;;;;;;4988000;28;20401;-64
2023/06/19 06:11:34;;;;;;;12.60;12.00;;;;;;;;;;4992318;28;20037;-64
2023/06/19 06:14:00;;;;;;;13.25;12.55;;;;;;;;;;4989279;28;20030;-64
2023/06/19 06:16:25;;;;;;;13.75;13.05;;;;;;;;;;4981157;28;20097;-63
2023/06/19 06:18:50;;;;;;;12.95;12.35;;;;;;;;;;4992723;28;20586;-65
2023/06/19 06:21:15;;;;;;;12.73;12.13;;;;;;;;;;4993646;28;20470;-63
2023/06/19 06:23:41;;;;;;;12.35;11.75;;;;;;;;;;4992185;28;20022;-68
2023/06/19 06:26:06;;;;;;;15.48;14.60;;;;;;;;;;4984266;28;20035;-71
2023/06/19 06:28:32;;;;;;;13.68;12.98;;;;;;;;;;4984531;28;20038;-70
2023/06/19 06:30:57;;;;;;;14.00;13.30;;;;;;;;;;4982312;28;21476;-70
2023/06/19 06:33:23;;;;;;;13.70;13.00;;;;;;;;;;4981998;28;20023;-69
2023/06/19 06:35:48;;;;;;;12.75;12.15;;;;;;;;;;4983056;28;20018;-67
2023/06/19 06:38:13;;;;;;;13.20;12.60;;;;;;;;;;4992934;28;20359;-68
2023/06/19 06:40:41;;;;;;;14.23;13.52;;;;;;;;;;4988051;28;20058;-68
2023/06/19 06:43:06;;;;;;;13.98;13.27;;;;;;;;;;5000784;28;20413;-68
2023/06/19 06:45:32;;;;;;;14.30;13.60;;;;;;;;;;4982496;28;20048;-67
2023/06/19 06:47:57;;;;;;;15.10;14.30;;;;;;;;;;4981317;28;20629;-68
2023/06/19 06:50:22;;;;;;;13.20;12.60;;;;;;;;;;4981025;28;20105;-70
2023/06/19 06:52:48;;;;;;;13.73;13.02;;;;;;;;;;4989202;28;20033;-71
2023/06/19 06:55:13;;;;;;;13.63;12.93;;;;;;;;;;4992388;28;20109;-71
2023/06/19 06:57:38;;;;;;;14.00;13.30;;;;;;;;;;4993149;28;20056;-71
2023/06/19 07:00:04;;;;;;;13.70;13.00;;;;;;;;;;5007202;28;20030;-69
2023/06/19 07:02:30;;;;;;;13.32;12.70;;;;;;;;;;4988284;28;20023;-70
2023/06/19 07:04:55;;;;;;;13.82;13.13;;;;;;;;;;4990691;28;20036;-70
2023/06/19 07:07:20;;;;;;;13.52;12.82;;;;;;;;;;4986823;28;20026;-71
2023/06/19 07:09:46;;;;;;;13.70;13.00;;;;;;;;;;4988778;28;20032;-69
2023/06/19 07:12:11;;;;;;;13.60;12.90;;;;;;;;;;4987363;28;20018;-70
2023/06/19 07:14:37;;;;;;;12.80;12.20;;;;;;;;;;4995600;28;20050;-71
2023/06/19 07:17:02;;;;;;;13.55;12.85;;;;;;;;;;4986445;28;20034;-72
2023/06/19 07:19:29;;;;;;;13.80;13.10;;;;;;;;;;4988820;28;20308;-72
2023/06/19 07:21:54;;;;;;;13.90;13.20;;;;;;;;;;4983551;28;20026;-71
2023/06/19 07:24:20;;;;;;;12.68;12.07;;;;;;;;;;4988289;28;20853;-65
2023/06/19 07:26:46;;;;;;;13.00;12.40;;;;;;;;;;4989637;28;20033;-65
2023/06/19 07:29:11;;;;;;;13.43;12.82;;;;;;;;;;4984466;28;20043;-65
2023/06/19 07:31:37;;;;;;;12.80;12.20;;;;;;;;;;4988194;28;20461;-70
2023/06/19 07:34:02;;;;;;;13.00;12.40;;;;;;;;;;4987953;28;20149;-66
2023/06/19 07:36:27;;;;;;;12.88;12.27;;;;;;;;;;4989530;28;20113;-67
2023/06/19 07:38:53;;;;;;;13.05;12.45;;;;;;;;;;4986795;28;20097;-69
2023/06/19 07:41:18;;;;;;;12.73;12.13;;;;;;;;;;4987031;28;20019;-67
2023/06/19 07:43:43;;;;;;;13.07;12.47;;;;;;;;;;4987338;28;20023;-68
2023/06/19 07:46:09;;;;;;;13.75;13.05;;;;;;;;;;4989750;28;20268;-68
2023/06/19 07:48:35;;;;;;;13.55;12.88;;;;;;;;;;4989351;28;20022;-67
2023/06/19 07:51:00;;;;;;;13.05;12.45;;;;;;;;;;4980652;28;20060;-68
2023/06/19 07:53:25;;;;;;;13.90;13.20;;;;;;;;;;4988051;28;20022;-67
2023/06/19 07:55:50;;;;;;;13.73;13.02;;;;;;;;;;4994050;28;20030;-65
2023/06/19 07:58:16;;;;;;;13.75;13.05;;;;;;;;;;4986677;28;20052;-67
2023/06/19 08:00:41;;;;;;;13.23;12.63;;;;;;;;;;4990117;28;20027;-69
2023/06/19 08:03:07;;;;;;;13.25;12.65;;;;;;;;;;4987717;28;20081;-65
2023/06/19 08:05:32;;;;;;;13.47;12.87;;;;;;;;;;4981746;28;20451;-65
2023/06/19 08:08:01;;;;;;;13.48;12.88;;;;;;;;;;4987268;28;20260;-66
2023/06/19 08:10:26;;;;;;;12.95;12.35;;;;;;;;;;4991018;28;20034;-65
2023/06/19 08:12:52;;;;;;;13.05;12.45;;;;;;;;;;4995415;28;20030;-68
2023/06/19 08:15:17;;;;;;;13.88;13.18;;;;;;;;;;4993660;28;20409;-68
2023/06/19 08:17:43;;;;;;;13.87;13.17;;;;;;;;;;4987999;28;20516;-70
2023/06/19 08:20:08;;;;;;;13.25;12.65;;;;;;;;;;4990434;28;20256;-69
2023/06/19 08:22:34;;;;;;;13.57;12.90;;;;;;;;;;4981178;28;20098;-68
2023/06/19 08:24:59;;;;;;;13.23;12.63;;;;;;;;;;4986176;28;20807;-69
2023/06/19 08:27:24;;;;;;;13.95;13.25;;;;;;;;;;4987751;28;20073;-68
2023/06/19 08:29:50;;;;;;;13.70;13.00;;;;;;;;;;4992056;28;20030;-67
2023/06/19 08:32:15;;;;;;;12.82;12.23;;;;;;;;;;4989953;28;20747;-67
2023/06/19 08:34:41;;;;;;;13.48;12.82;;;;;;;;;;4983400;28;20482;-68
2023/06/19 08:37:08;;;;;;;13.35;12.70;;;;;;;;;;4989729;28;20030;-66
2023/06/19 08:39:33;;;;;;;14.20;13.50;;;;;;;;;;4978966;28;20173;-66
2023/06/19 08:41:58;;;;;;;13.82;13.13;;;;;;;;;;4981107;28;20569;-66
2023/06/19 08:44:24;;;;;;;13.17;12.57;;;;;;;;;;4986905;28;20502;-65
2023/06/19 08:46:49;;;;;;;13.15;12.55;;;;;;;;;;4983829;28;20292;-70
2023/06/19 08:49:14;;;;;;;13.13;12.52;;;;;;;;;;4989062;28;20034;-69
2023/06/19 08:51:40;;;;;;;13.07;12.48;;;;;;;;;;4980134;28;20034;-70
2023/06/19 08:54:07;;;;;;;14.32;13.63;;;;;;;;;;4979223;28;20898;-71
2023/06/19 08:56:37;;;;;;;12.93;12.32;;;;;;;;;;4982539;28;20041;-71
2023/06/19 08:59:09;;;;;;;13.70;13.00;;;;;;;;;;4983807;28;20019;-69
2023/06/19 09:01:34;;;;;;;12.93;12.32;;;;;;;;;;4987566;28;20030;-69
2023/06/19 09:04:00;;;;;;;13.95;13.25;;;;;;;;;;4978805;28;20026;-69
2023/06/19 09:06:26;;;;;;;13.13;12.53;;;;;;;;;;4985603;28;20026;-70
2023/06/19 09:08:59;;;;;;;13.85;13.15;;;;;;;;;;4988975;28;20282;-70
2023/06/19 09:11:24;;;;;;;13.48;12.77;;;;;;;;;;4981846;28;20022;-71
2023/06/19 09:13:56;;;;;;;13.85;13.15;;;;;;;;;;4979189;28;20030;-71
2023/06/19 09:16:23;;;;;;;13.65;12.95;;;;;;;;;;4982656;28;20034;-71
2023/06/19 09:18:48;;;;;;;14.07;13.38;;;;;;;;;;4979333;28;20022;-71
2023/06/19 09:21:17;;;;;;;13.98;13.27;;;;;;;;;;4980464;28;20031;-71
2023/06/19 09:23:43;;;;;;;13.00;12.40;;;;;;;;;;4983999;28;20023;-71
2023/06/19 09:26:08;;;;;;;13.48;12.77;;;;;;;;;;4982085;28;20018;-71
2023/06/19 09:28:33;;;;;;;12.68;12.07;;;;;;;;;;4987527;28;20050;-70
2023/06/19 09:31:02;;;;;;;13.93;13.23;;;;;;;;;;4985143;28;20066;-70
2023/06/19 09:33:28;;;;;;;13.13;12.52;;;;;;;;;;4979360;28;20030;-71
2023/06/19 09:35:55;;;;;;;13.70;13.00;;;;;;;;;;4978270;28;20603;-70
2023/06/19 09:38:21;;;;;;;12.57;11.98;;;;;;;;;;4983787;28;20034;-70
2023/06/19 09:40:47;;;;;;;13.65;12.95;;;;;;;;;;4983184;28;20023;-70
2023/06/19 09:43:15;;;;;;;13.65;12.95;;;;;;;;;;4987610;28;20366;-68
2023/06/19 09:45:40;;;;;;;14.65;13.85;;;;;;;;;;4983623;28;20090;-69
2023/06/19 09:48:07;;;;;;;14.07;13.38;;;;;;;;;;4980959;28;20122;-69
2023/06/19 09:50:34;;;;;;;13.13;12.52;;;;;;;;;;4985114;28;20022;-70
2023/06/19 09:53:00;;;;;;;14.70;13.90;;;;;;;;;;4984848;28;20034;-67
2023/06/19 09:55:28;;;;;;;14.15;13.45;;;;;;;;;;4983434;28;20030;-69
2023/06/19 09:57:54;;;;;;;12.80;12.20;;;;;;;;;;4983616;28;20027;-70
2023/06/19 10:00:22;;;;;;;13.35;12.68;;;;;;;;;;4980992;28;20033;-69
2023/06/19 10:02:48;;;;;;;14.80;14.00;;;;;;;;;;4986737;28;20105;-68
2023/06/19 10:05:14;;;;;;;13.57;12.88;;;;;;;;;;4983298;28;20133;-69
2023/06/19 10:07:41;;;;;;;13.15;12.55;;;;;;;;;;4976995;28;20034;-68
2023/06/19 10:10:08;;;;;;;13.75;13.05;;;;;;;;;;4982163;28;20034;-68
2023/06/19 10:12:38;;;;;;;13.20;12.55;;;;;;;;;;4982787;28;20033;-68
2023/06/19 10:15:17;;;;;;;14.30;13.60;;;;;;;;;;4982124;28;20077;-70
2023/06/19 10:17:47;;;;;;;14.05;13.35;;;;;;;;;;4983200;28;20030;-67
2023/06/19 10:20:22;;;;;;;13.63;12.93;;;;;;;;;;4984500;28;20584;-71
2023/06/19 10:22:51;;;;;;;13.52;12.82;;;;;;;;;;4980977;28;20105;-68
2023/06/19 10:25:21;;;;;;;13.63;12.93;;;;;;;;;;4981297;28;20065;-69
2023/06/19 10:27:46;;;;;;;14.85;14.05;;;;;;;;;;4984952;28;20049;-69
2023/06/19 10:30:17;;;;;;;13.60;12.90;;;;;;;;;;4979226;28;20413;-67
2023/06/19 10:32:42;;;;;;;15.00;14.20;;;;;;;;;;4977569;28;20026;-70
2023/06/19 10:35:12;;;;;;;14.27;13.55;;;;;;;;;;4988991;28;20031;-66
2023/06/19 10:37:37;;;;;;;14.40;13.70;;;;;;;;;;4977269;28;20088;-69
2023/06/19 10:40:02;;;;;;;15.30;14.50;;;;;;;;;;4983894;28;20046;-69
2023/06/19 10:42:28;;;;;;;14.73;13.93;;;;;;;;;;4981127;28;20022;-70
2023/06/19 10:44:59;;;;;;;14.88;14.07;;;;;;;;;;4985353;28;20030;-64
2023/06/19 10:47:24;;;;;;;14.82;14.02;;;;;;;;;;4984755;28;20184;-65
2023/06/19 10:49:49;;;;;;;14.48;13.68;;;;;;;;;;4982437;28;20505;-65
2023/06/19 10:52:15;;;;;;;14.45;13.65;;;;;;;;;;4981113;28;20045;-68
2023/06/19 10:54:41;;;;;;;14.93;14.13;;;;;;;;;;4976846;28;20018;-69
2023/06/19 10:57:06;;;;;;;14.82;14.02;;;;;;;;;;4984589;28;20018;-63
2023/06/19 10:59:33;;;;;;;15.40;14.57;;;;;;;;;;4971746;28;20032;-64
2023/06/19 11:01:58;;;;;;;15.27;14.48;;;;;;;;;;4987540;28;20018;-64
2023/06/19 11:04:25;;;;;;;13.38;12.70;;;;;;;;;;4980964;28;20753;-64
2023/06/19 11:06:50;;;;;;;13.43;12.73;;;;;;;;;;4993182;28;20406;-65
2023/06/19 11:09:15;;;;;;;14.63;13.82;;;;;;;;;;4978510;28;20050;-64
2023/06/19 11:11:47;;;;;;;14.00;13.30;;;;;;;;;;4988233;28;20022;-65
2023/06/19 11:14:14;;;;;;;13.98;13.27;;;;;;;;;;4984388;28;20074;-65
2023/06/19 11:16:43;;;;;;;14.43;13.68;;;;;;;;;;4990167;28;20061;-65
2023/06/19 11:19:09;;;;;;;13.30;12.70;;;;;;;;;;4982630;28;20031;-64
2023/06/19 11:21:39;;;;;;;14.70;13.90;;;;;;;;;;4975436;28;20057;-65
2023/06/19 11:24:06;;;;;;;13.20;12.60;;;;;;;;;;4984642;28;20034;-64
2023/06/19 11:27:00;;;;;;;14.82;14.02;;;;;;;;;;4985219;28;20037;-64
2023/06/19 11:29:26;;;;;;;14.52;13.80;;;;;;;;;;4977087;28;20038;-67
2023/06/19 11:31:54;;;;;;;14.57;13.88;;;;;;;;;;4978953;28;20831;-64
2023/06/19 11:34:19;;;;;;;13.93;13.23;;;;;;;;;;4987300;28;20513;-65
2023/06/19 11:36:45;;;;;;;14.00;13.30;;;;;;;;;;4989700;28;20105;-64
2023/06/19 11:39:15;;;;;;;14.38;13.68;;;;;;;;;;4985621;28;20038;-64
2023/06/19 11:41:41;;;;;;;14.35;13.65;;;;;;;;;;4982951;28;20422;-63
2023/06/19 11:44:09;;;;;;;13.38;12.75;;;;;;;;;;4984997;28;20022;-66
2023/06/19 11:46:34;;;;;;;13.95;13.25;;;;;;;;;;4981245;28;20248;-65
2023/06/19 11:49:09;;;;;;;14.20;13.50;;;;;;;;;;4983161;28;20125;-65
2023/06/19 11:51:34;;;;;;;13.88;13.18;;;;;;;;;;4982632;28;20158;-67
2023/06/19 11:54:00;;;;;;;13.57;12.95;;;;;;;;;;4983729;28;20113;-64
2023/06/19 11:56:25;;;;;;;13.73;13.02;;;;;;;;;;4984996;28;20027;-64
2023/06/19 11:58:50;;;;;;;14.57;13.87;;;;;;;;;;4980037;28;20039;-65
2023/06/19 12:01:15;;;;;;;14.27;13.57;;;;;;;;;;4986411;28;20251;-65
2023/06/19 12:03:41;;;;;;;14.07;13.38;;;;;;;;;;4986275;28;20586;-65
2023/06/19 12:06:06;;;;;;;13.82;13.13;;;;;;;;;;4993691;28;20014;-65
2023/06/19 12:08:33;;;;;;;14.07;13.38;;;;;;;;;;4982387;28;20105;-64
2023/06/19 12:10:58;;;;;;;13.77;13.10;;;;;;;;;;4986034;28;20026;-66
2023/06/19 12:13:23;;;;;;;13.05;12.45;;;;;;;;;;4984218;28;20500;-65
2023/06/19 12:15:49;;;;;;;13.27;12.68;;;;;;;;;;4982423;28;20471;-67
2023/06/19 12:18:14;;;;;;;13.70;13.00;;;;;;;;;;4986246;28;20030;-65
2023/06/19 12:20:40;;;;;;;13.38;12.77;;;;;;;;;;4985270;28;20343;-65
2023/06/19 12:23:05;;;;;;;13.30;12.70;;;;;;;;;;4985349;28;20061;-65
2023/06/19 12:25:30;;;;;;;13.68;13.00;;;;;;;;;;4980364;28;20061;-66
2023/06/19 12:27:56;;;;;;;13.40;12.80;;;;;;;;;;4988615;28;20074;-63
2023/06/19 12:30:21;;;;;;;13.00;12.40;;;;;;;;;;4987797;28;20060;-64
2023/06/19 12:32:49;;;;;;;13.43;12.82;;;;;;;;;;4988474;28;20018;-66
2023/06/19 12:35:14;;;;;;;13.13;12.52;;;;;;;;;;4984178;28;20034;-64
2023/06/19 12:37:40;;;;;;;13.05;12.45;;;;;;;;;;4980770;28;20557;-64
2023/06/19 12:40:09;;;;;;;13.17;12.57;;;;;;;;;;4989953;28;20026;-64
2023/06/19 12:42:35;;;;;;;13.35;12.73;;;;;;;;;;4989520;28;20279;-63
2023/06/19 12:45:01;;;;;;;13.40;12.80;;;;;;;;;;4985928;28;20023;-65
2023/06/19 12:47:26;;;;;;;13.00;12.40;;;;;;;;;;4989360;28;20026;-65
2023/06/19 12:49:51;;;;;;;13.20;12.60;;;;;;;;;;4989760;28;20026;-65
2023/06/19 12:52:16;;;;;;;12.68;12.07;;;;;;;;;;4989329;28;20309;-69
2023/06/19 12:54:42;;;;;;;13.15;12.55;;;;;;;;;;4989561;28;20350;-68
2023/06/19 12:57:07;;;;;;;13.95;13.25;;;;;;;;;;4988182;28;20033;-71
2023/06/19 12:59:32;;;;;;;13.73;13.02;;;;;;;;;;4990101;28;20026;-68
2023/06/19 13:01:58;;;;;;;13.75;13.05;;;;;;;;;;4988535;28;20033;-66
2023/06/19 13:04:23;;;;;;;13.03;12.43;;;;;;;;;;4983976;28;20033;-67
2023/06/19 13:06:48;;;;;;;13.15;12.55;;;;;;;;;;4980249;28;20354;-64
2023/06/19 13:09:14;;;;;;;13.27;12.68;;;;;;;;;;4984416;28;20022;-65
2023/06/19 13:11:39;;;;;;;13.90;13.20;;;;;;;;;;4980067;28;20057;-65
2023/06/19 13:14:04;;;;;;;13.00;12.40;;;;;;;;;;4985118;28;20038;-66
2023/06/19 13:16:31;;;;;;;14.13;13.43;;;;;;;;;;4986131;28;20057;-66
2023/06/19 13:18:56;;;;;;;14.05;13.35;;;;;;;;;;4986567;28;20413;-66
2023/06/19 13:21:22;;;;;;;14.32;13.63;;;;;;;;;;4978511;28;20029;-67
2023/06/19 13:23:49;;;;;;;13.18;12.57;;;;;;;;;;4987121;28;20022;-66
2023/06/19 13:26:14;;;;;;;13.35;12.75;;;;;;;;;;4982885;28;20390;-65
2023/06/19 13:28:39;;;;;;;14.38;13.68;;;;;;;;;;4981684;28;20046;-65
2023/06/19 13:31:05;;;;;;;13.83;13.13;;;;;;;;;;4980165;28;20084;-64
2023/06/19 13:33:30;;;;;;;12.63;12.02;;;;;;;;;;4985600;28;20709;-64
2023/06/19 13:35:55;;;;;;;14.20;13.50;;;;;;;;;;4986187;28;20401;-64
2023/06/19 13:38:21;;;;;;;13.43;12.82;;;;;;;;;;4986790;28;20034;-64
2023/06/19 13:40:46;;;;;;;13.07;12.48;;;;;;;;;;4980523;28;20442;-64
2023/06/19 13:43:12;;;;;;;13.70;13.00;;;;;;;;;;4986873;28;20019;-63
2023/06/19 13:45:38;;;;;;;13.75;13.05;;;;;;;;;;4980861;28;20022;-65
2023/06/19 13:48:04;;;;;;;13.20;12.60;;;;;;;;;;4984981;28;20025;-66
2023/06/19 13:50:29;;;;;;;13.70;13.00;;;;;;;;;;4988304;28;20034;-66
2023/06/19 13:52:54;;;;;;;13.70;13.00;;;;;;;;;;4987235;28;20081;-65
2023/06/19 13:55:20;;;;;;;13.13;12.52;;;;;;;;;;4980203;28;20117;-63
2023/06/19 13:57:45;;;;;;;13.98;13.27;;;;;;;;;;4983504;28;20026;-65
2023/06/19 14:00:11;;;;;;;13.55;12.85;;;;;;;;;;4980547;28;20051;-65
2023/06/19 14:02:37;;;;;;;14.13;13.43;;;;;;;;;;4980496;28;20101;-63
2023/06/19 14:05:04;;;;;;;13.35;12.75;;;;;;;;;;4984013;28;20438;-63
2023/06/19 14:07:29;;;;;;;13.45;12.80;;;;;;;;;;4985010;28;20031;-62
2023/06/19 14:09:54;;;;;;;13.48;12.77;;;;;;;;;;4978576;28;20517;-62